createdAt,value
2022-12-08T00:00:13.821Z,5.90
2022-12-08T00:02:44.287Z,6.10
2022-12-08T00:05:29.884Z,6.20
2022-12-08T00:08:12.869Z,6.30
2022-12-08T00:10:50.531Z,6.50
2022-12-08T00:13:18.263Z,6.30
2022-12-08T00:15:45.949Z,6.20
2022-12-08T00:18:13.885Z,6.30
2022-12-08T00:20:41.566Z,6.10
2022-12-08T00:23:10.609Z,6.00
2022-12-08T00:25:38.336Z,5.90
2022-12-08T00:28:06.056Z,5.80
2022-12-08T00:30:33.859Z,5.60
2022-12-08T00:33:01.631Z,5.70
2022-12-08T00:35:29.308Z,5.60
2022-12-08T00:38:00.853Z,5.50
2022-12-08T00:40:30.234Z,5.50
2022-12-08T00:42:57.950Z,5.60
2022-12-08T00:45:25.621Z,5.60
2022-12-08T00:47:53.306Z,5.70
2022-12-08T00:50:21.042Z,5.90
2022-12-08T00:52:48.711Z,5.90
2022-12-08T00:55:16.381Z,6.10
2022-12-08T00:57:45.426Z,6.10
2022-12-08T01:00:13.509Z,6.10
2022-12-08T01:02:41.616Z,6.10
2022-12-08T01:05:09.449Z,6.20
2022-12-08T01:07:37.127Z,6.30
2022-12-08T01:10:05.388Z,6.40
2022-12-08T01:12:33.216Z,6.50
2022-12-08T01:15:02.874Z,6.50
2022-12-08T01:17:30.775Z,6.20
2022-12-08T01:19:58.553Z,6.20
2022-12-08T01:22:26.356Z,6.20
2022-12-08T01:24:54.067Z,6.20
2022-12-08T01:27:21.771Z,6.20
2022-12-08T01:29:49.459Z,6.20
2022-12-08T01:32:18.518Z,6.30
2022-12-08T01:34:46.422Z,6.30
2022-12-08T01:37:14.267Z,6.30
2022-12-08T01:39:41.970Z,6.30
2022-12-08T01:42:19.377Z,6.40
2022-12-08T01:44:58.043Z,6.30
2022-12-08T01:47:30.245Z,6.30
2022-12-08T01:49:57.994Z,6.20
2022-12-08T01:52:27.926Z,6.10
2022-12-08T01:54:59.111Z,6.10
2022-12-08T01:57:28.372Z,6.10
2022-12-08T02:00:01.616Z,6.10
2022-12-08T02:02:35.195Z,6.20
2022-12-08T02:05:03.265Z,6.10
2022-12-08T02:07:31.491Z,6.00
2022-12-08T02:09:59.349Z,5.80
2022-12-08T02:12:27.070Z,5.90
2022-12-08T02:14:54.775Z,6.00
2022-12-08T02:17:33.102Z,6.10
2022-12-08T02:20:28.574Z,6.20
2022-12-08T02:23:01.232Z,6.10
2022-12-08T02:25:35.073Z,6.00
2022-12-08T02:28:11.689Z,5.80
2022-12-08T02:30:46.325Z,5.80
2022-12-08T02:33:25.220Z,5.90
2022-12-08T02:36:00.817Z,6.00
2022-12-08T02:38:34.341Z,6.10
2022-12-08T02:41:05.742Z,6.20
2022-12-08T02:43:36.676Z,6.20
2022-12-08T02:46:06.398Z,6.30
2022-12-08T02:48:34.928Z,6.20
2022-12-08T02:51:04.014Z,6.20
2022-12-08T02:53:33.072Z,6.30
2022-12-08T02:56:04.560Z,6.30
2022-12-08T02:58:49.333Z,6.30
2022-12-08T03:01:27.525Z,6.20
2022-12-08T03:04:00.674Z,6.00
2022-12-08T03:06:32.277Z,6.00
2022-12-08T03:09:01.311Z,6.20
2022-12-08T03:11:32.575Z,6.00
2022-12-08T03:14:01.455Z,5.90
2022-12-08T03:16:30.480Z,6.00
2022-12-08T03:19:01.718Z,6.00
2022-12-08T03:21:30.870Z,5.90
2022-12-08T03:23:58.570Z,5.70
2022-12-08T03:26:28.325Z,5.60
2022-12-08T03:28:56.103Z,5.60
2022-12-08T03:31:25.948Z,5.60
2022-12-08T03:33:56.013Z,5.60
2022-12-08T03:36:24.103Z,5.40
2022-12-08T03:38:53.970Z,5.50
2022-12-08T03:41:22.448Z,5.50
2022-12-08T03:43:50.678Z,5.50
2022-12-08T03:46:18.712Z,5.60
2022-12-08T03:48:46.446Z,5.60
2022-12-08T03:51:14.702Z,5.50
2022-12-08T03:53:42.737Z,5.50
2022-12-08T03:56:17.719Z,5.60
2022-12-08T03:58:45.643Z,5.80
2022-12-08T04:01:13.438Z,5.90
2022-12-08T04:03:41.140Z,6.10
2022-12-08T04:06:08.900Z,6.20
2022-12-08T04:08:36.800Z,6.30
2022-12-08T04:11:06.377Z,6.20
2022-12-08T04:13:35.682Z,6.20
2022-12-08T04:16:03.709Z,6.20
2022-12-08T04:18:31.745Z,6.30
2022-12-08T04:20:59.458Z,6.30
2022-12-08T04:23:27.183Z,6.00
2022-12-08T04:26:05.602Z,6.00
2022-12-08T04:28:34.666Z,5.90
2022-12-08T04:31:03.564Z,5.60
2022-12-08T04:33:31.313Z,5.70
2022-12-08T04:35:59.022Z,5.70
2022-12-08T04:38:26.822Z,5.60
2022-12-08T04:40:54.544Z,5.30
2022-12-08T04:43:22.252Z,5.50
2022-12-08T04:45:51.290Z,5.20
2022-12-08T04:48:19.134Z,5.10
2022-12-08T04:50:47.448Z,4.90
2022-12-08T04:53:15.238Z,5.00
2022-12-08T04:55:44.778Z,4.90
2022-12-08T04:58:13.230Z,4.90
2022-12-08T05:00:40.975Z,4.80
2022-12-08T05:03:10.559Z,4.60
2022-12-08T05:05:38.268Z,4.50
2022-12-08T05:08:06.256Z,4.40
2022-12-08T05:10:34.100Z,4.10
2022-12-08T05:13:01.901Z,4.20
2022-12-08T05:15:29.605Z,4.20
2022-12-08T05:17:57.278Z,4.30
2022-12-08T05:20:26.306Z,4.30
2022-12-08T05:22:54.039Z,4.30
2022-12-08T05:25:21.766Z,4.30
2022-12-08T05:27:49.450Z,4.30
2022-12-08T05:30:17.342Z,4.20
2022-12-08T05:32:45.281Z,4.30
2022-12-08T05:35:12.978Z,4.40
2022-12-08T05:37:42.017Z,4.40
2022-12-08T05:40:10.085Z,4.30
2022-12-08T05:42:37.730Z,4.30
2022-12-08T05:45:05.885Z,4.50
2022-12-08T05:47:36.158Z,4.60
2022-12-08T05:50:04.469Z,4.80
2022-12-08T05:52:32.782Z,5.00
2022-12-08T05:55:01.914Z,5.30
2022-12-08T05:57:29.619Z,5.40
2022-12-08T05:59:59.419Z,5.30
2022-12-08T06:02:27.263Z,5.10
2022-12-08T06:04:55.019Z,4.90
2022-12-08T06:07:22.665Z,4.80
2022-12-08T06:09:50.467Z,4.60
2022-12-08T06:12:19.470Z,4.40
2022-12-08T06:14:47.141Z,4.30
2022-12-08T06:17:14.844Z,4.30
2022-12-08T06:19:43.135Z,4.30
2022-12-08T06:22:10.824Z,4.20
2022-12-08T06:24:38.521Z,4.20
2022-12-08T06:27:06.220Z,4.20
2022-12-08T06:29:35.267Z,4.10
2022-12-08T06:32:03.143Z,4.20
2022-12-08T06:34:30.829Z,4.10
2022-12-08T06:36:58.500Z,4.00
2022-12-08T06:39:26.182Z,4.00
2022-12-08T06:42:11.762Z,4.00
2022-12-08T06:44:41.232Z,4.00
2022-12-08T06:47:08.922Z,4.00
2022-12-08T06:49:36.596Z,4.10
2022-12-08T06:52:04.514Z,4.00
2022-12-08T06:54:32.194Z,4.00
2022-12-08T06:56:59.893Z,4.00
2022-12-08T06:59:27.607Z,4.00
2022-12-08T07:01:57.240Z,4.00
2022-12-08T07:04:24.964Z,4.00
2022-12-08T07:06:52.664Z,3.90
2022-12-08T07:09:20.359Z,3.90
2022-12-08T07:11:48.082Z,4.00
2022-12-08T07:14:15.919Z,4.00
2022-12-08T07:16:43.621Z,3.90
2022-12-08T07:19:13.103Z,3.90
2022-12-08T07:21:40.790Z,3.90
2022-12-08T07:24:08.670Z,3.80
2022-12-08T07:26:36.530Z,3.80
2022-12-08T07:29:04.599Z,3.70
2022-12-08T07:31:32.277Z,3.70
2022-12-08T07:33:59.980Z,3.70
2022-12-08T07:36:29.042Z,3.70
2022-12-08T07:38:56.771Z,3.70
2022-12-08T07:41:25.314Z,3.70
2022-12-08T07:43:53.532Z,3.70
2022-12-08T07:46:22.678Z,3.70
2022-12-08T07:48:50.428Z,3.70
2022-12-08T07:51:18.868Z,3.70
2022-12-08T07:53:53.809Z,3.70
2022-12-08T07:56:22.816Z,3.70
2022-12-08T07:58:50.611Z,3.60
2022-12-08T08:01:22.320Z,3.60
2022-12-08T08:03:50.140Z,3.70
2022-12-08T08:06:17.857Z,3.60
2022-12-08T08:08:45.573Z,3.60
2022-12-08T08:11:20.840Z,3.70
2022-12-08T08:13:49.802Z,3.70
2022-12-08T08:16:18.285Z,3.70
2022-12-08T08:18:47.656Z,3.70
2022-12-08T08:21:43.715Z,3.70
2022-12-08T08:24:03.187Z,3.70
2022-12-08T08:26:32.280Z,3.80
2022-12-08T08:29:00.089Z,3.80
2022-12-08T08:31:27.847Z,3.90
2022-12-08T08:33:56.645Z,3.90
2022-12-08T08:36:24.352Z,3.80
2022-12-08T08:38:52.033Z,3.90
2022-12-08T08:41:19.739Z,3.90
2022-12-08T08:43:48.733Z,3.90
2022-12-08T08:46:16.535Z,3.90
2022-12-08T08:48:44.277Z,4.00
2022-12-08T08:51:12.467Z,4.10
2022-12-08T08:53:40.172Z,4.10
2022-12-08T08:56:09.410Z,4.10
2022-12-08T08:58:37.114Z,4.10
2022-12-08T09:01:06.329Z,4.10
2022-12-08T09:03:34.384Z,4.10
2022-12-08T09:06:02.137Z,4.20
2022-12-08T09:08:29.949Z,4.20
2022-12-08T09:10:57.709Z,4.20
2022-12-08T09:13:25.377Z,4.20
2022-12-08T09:15:53.158Z,4.10
2022-12-08T09:18:22.429Z,4.20
2022-12-08T09:20:50.115Z,4.20
2022-12-08T09:23:17.804Z,4.20
2022-12-08T09:25:46.635Z,4.10
2022-12-08T09:28:14.353Z,4.10
2022-12-08T09:30:42.205Z,4.20
2022-12-08T09:33:09.886Z,4.20
2022-12-08T09:35:38.878Z,4.20
2022-12-08T09:38:06.629Z,4.20
2022-12-08T09:40:37.993Z,4.20
2022-12-08T09:43:11.232Z,4.30
2022-12-08T09:45:39.000Z,4.30
2022-12-08T09:48:08.806Z,4.40
2022-12-08T09:50:39.957Z,4.40
2022-12-08T09:53:10.673Z,4.40
2022-12-08T09:55:41.468Z,4.40
2022-12-08T09:58:15.434Z,4.50
2022-12-08T10:00:43.150Z,4.50
2022-12-08T10:03:16.455Z,4.50
2022-12-08T10:05:47.610Z,4.50
2022-12-08T10:08:20.143Z,4.50
2022-12-08T10:10:49.087Z,4.60
2022-12-08T10:13:19.724Z,4.60
2022-12-08T10:15:50.828Z,4.70
2022-12-08T10:18:19.737Z,4.70
2022-12-08T10:20:48.920Z,4.70
2022-12-08T10:23:22.170Z,4.70
2022-12-08T10:25:52.561Z,4.70
2022-12-08T10:28:20.272Z,4.80
2022-12-08T10:30:47.949Z,4.90
2022-12-08T10:33:17.081Z,4.90
2022-12-08T10:35:45.994Z,4.90
2022-12-08T10:38:19.515Z,4.90
2022-12-08T10:40:47.599Z,5.00
2022-12-08T10:43:16.333Z,5.10
2022-12-08T10:45:44.658Z,5.20
2022-12-08T10:48:15.670Z,5.20
2022-12-08T10:50:44.830Z,5.40
2022-12-08T10:53:14.449Z,5.60
2022-12-08T10:55:44.587Z,5.80
2022-12-08T10:58:25.291Z,6.20
2022-12-08T11:00:53.275Z,6.40
2022-12-08T11:03:23.630Z,6.70
2022-12-08T11:05:51.422Z,6.80
2022-12-08T11:08:19.306Z,6.90
2022-12-08T11:10:48.802Z,7.00
2022-12-08T11:13:19.784Z,7.20
2022-12-08T11:15:47.729Z,7.10
2022-12-08T11:18:23.348Z,6.90
2022-12-08T11:20:57.905Z,6.80
2022-12-08T11:23:26.783Z,6.90
2022-12-08T11:25:57.169Z,7.00
2022-12-08T11:28:25.242Z,7.00
2022-12-08T11:30:57.521Z,6.70
2022-12-08T11:33:26.181Z,6.60
2022-12-08T11:35:55.508Z,6.30
2022-12-08T11:38:24.666Z,5.80
2022-12-08T11:40:53.354Z,5.80
2022-12-08T11:43:25.235Z,5.70
2022-12-08T11:45:56.995Z,5.70
2022-12-08T11:48:27.923Z,5.70
2022-12-08T11:50:58.219Z,5.70
2022-12-08T11:53:28.708Z,5.90
2022-12-08T11:55:58.974Z,5.80
2022-12-08T11:58:30.786Z,5.80
2022-12-08T12:00:58.653Z,5.80
2022-12-08T12:03:30.194Z,5.90
2022-12-08T12:06:18.537Z,5.90
2022-12-08T12:09:00.530Z,6.00
2022-12-08T12:11:50.898Z,6.10
2022-12-08T12:14:29.683Z,5.90
2022-12-08T12:17:03.039Z,6.00
2022-12-08T12:19:31.765Z,6.00
2022-12-08T12:22:00.936Z,6.20
2022-12-08T12:24:35.810Z,6.20
2022-12-08T12:27:07.848Z,6.30
2022-12-08T12:29:38.348Z,6.40
2022-12-08T12:32:07.641Z,6.40
2022-12-08T12:34:36.936Z,6.50
2022-12-08T12:37:06.746Z,6.40
2022-12-08T12:39:36.068Z,6.40
2022-12-08T12:42:05.654Z,6.30
2022-12-08T12:44:43.116Z,6.40
2022-12-08T12:47:15.607Z,6.40
2022-12-08T12:49:53.630Z,6.30
2022-12-08T12:52:37.667Z,6.40
2022-12-08T12:55:21.956Z,6.30
2022-12-08T12:57:52.175Z,6.20
2022-12-08T13:00:22.009Z,6.30
2022-12-08T13:02:50.084Z,6.30
2022-12-08T13:05:19.446Z,6.30
2022-12-08T13:07:50.552Z,6.10
2022-12-08T13:10:19.833Z,6.00
2022-12-08T13:13:02.797Z,6.10
2022-12-08T13:15:35.992Z,6.10
2022-12-08T13:18:03.910Z,6.00
2022-12-08T13:20:31.797Z,6.00
2022-12-08T13:23:03.005Z,6.00
2022-12-08T13:25:47.280Z,6.00
2022-12-08T13:28:21.408Z,6.00
2022-12-08T13:30:51.127Z,6.00
2022-12-08T13:33:20.428Z,5.90
2022-12-08T13:35:50.291Z,5.90
2022-12-08T13:38:20.137Z,5.80
2022-12-08T13:40:47.919Z,5.80
2022-12-08T13:43:18.957Z,5.70
2022-12-08T13:50:22.970Z,5.70
2022-12-08T13:53:35.082Z,5.70
2022-12-08T13:57:19.846Z,5.80
2022-12-08T13:59:47.817Z,5.90
2022-12-08T14:02:17.357Z,5.90
2022-12-08T14:05:16.729Z,5.80
2022-12-08T14:07:34.957Z,5.70
2022-12-08T14:10:03.531Z,5.80
2022-12-08T14:12:32.186Z,5.80
2022-12-08T14:15:04.108Z,5.70
2022-12-08T14:17:32.642Z,5.70
2022-12-08T14:20:02.402Z,5.70
2022-12-08T14:22:33.425Z,5.70
2022-12-08T14:25:01.331Z,5.70
2022-12-08T14:27:33.555Z,5.70
2022-12-08T14:30:02.560Z,5.70
2022-12-08T14:32:31.329Z,5.60
2022-12-08T14:35:13.451Z,5.60
2022-12-08T14:37:43.033Z,5.50
2022-12-08T14:40:21.108Z,5.60
2022-12-08T14:42:52.205Z,5.60
2022-12-08T14:45:20.803Z,5.60
2022-12-08T14:47:48.606Z,5.50
2022-12-08T14:50:39.173Z,5.50
2022-12-08T14:53:12.083Z,5.40
2022-12-08T14:55:39.954Z,5.40
2022-12-08T14:58:07.686Z,5.40
2022-12-08T15:00:35.383Z,5.40
2022-12-08T15:03:06.798Z,5.40
2022-12-08T15:05:34.729Z,5.40
2022-12-08T15:08:04.639Z,5.40
2022-12-08T15:10:35.413Z,5.30
2022-12-08T15:13:08.743Z,5.30
2022-12-08T15:15:54.183Z,5.20
2022-12-08T15:18:23.472Z,5.10
2022-12-08T15:20:52.193Z,5.10
2022-12-08T15:23:26.712Z,5.00
2022-12-08T15:25:55.012Z,5.00
2022-12-08T15:28:29.265Z,5.00
2022-12-08T15:30:57.992Z,5.00
2022-12-08T15:33:26.007Z,5.00
2022-12-08T15:35:53.756Z,4.90
2022-12-08T15:38:23.400Z,4.90
2022-12-08T15:40:52.545Z,4.80
2022-12-08T15:43:22.179Z,4.80
2022-12-08T15:45:58.522Z,4.70
2022-12-08T15:48:27.870Z,4.80
2022-12-08T15:50:56.073Z,4.70
2022-12-08T15:53:24.163Z,4.70
2022-12-08T15:58:57.651Z,4.60
2022-12-08T16:01:26.093Z,4.50
2022-12-08T16:07:20.368Z,4.50
2022-12-08T16:09:31.845Z,4.50
2022-12-08T16:12:18.379Z,4.50
2022-12-08T16:17:34.260Z,4.30
2022-12-08T16:20:02.307Z,4.30
2022-12-08T16:25:21.682Z,4.30
2022-12-08T16:28:05.356Z,4.20
2022-12-08T16:30:40.030Z,4.20
2022-12-08T16:33:07.722Z,4.10
2022-12-08T16:35:35.409Z,4.10
2022-12-08T16:38:03.105Z,4.10
2022-12-08T16:40:31.011Z,4.10
2022-12-08T16:42:59.064Z,4.20
2022-12-08T16:45:28.321Z,4.10
2022-12-08T16:47:56.800Z,4.10
2022-12-08T16:50:25.350Z,4.20
2022-12-08T16:52:57.213Z,4.20
2022-12-08T16:55:24.953Z,4.10
2022-12-08T16:57:52.833Z,4.20
2022-12-08T17:00:23.189Z,4.20
2022-12-08T17:02:51.575Z,4.10
2022-12-08T17:05:20.364Z,4.10
2022-12-08T17:07:49.186Z,4.10
2022-12-08T17:10:18.447Z,4.20
2022-12-08T17:12:46.379Z,4.20
2022-12-08T17:15:16.363Z,4.20
2022-12-08T17:17:45.379Z,4.20
2022-12-08T17:20:19.513Z,4.10
2022-12-08T17:22:47.238Z,4.10
2022-12-08T17:25:14.939Z,4.10
2022-12-08T17:27:42.953Z,4.10
2022-12-08T17:30:15.403Z,4.10
2022-12-08T17:32:43.461Z,4.10
2022-12-08T17:35:13.297Z,4.10
2022-12-08T17:37:41.016Z,4.10
2022-12-08T17:40:09.440Z,4.00
2022-12-08T17:42:38.548Z,4.00
2022-12-08T17:45:06.853Z,3.90
2022-12-08T17:47:34.847Z,4.00
2022-12-08T17:50:02.894Z,3.90
2022-12-08T17:52:32.146Z,4.00
2022-12-08T17:54:59.852Z,4.00
2022-12-08T17:57:27.680Z,4.00
2022-12-08T17:59:55.447Z,3.90
2022-12-08T18:02:23.269Z,3.90
2022-12-08T18:04:50.995Z,3.80
2022-12-08T18:07:18.685Z,3.80
2022-12-08T18:09:47.719Z,3.80
2022-12-08T18:12:20.707Z,3.80
2022-12-08T18:14:51.672Z,3.80
2022-12-08T18:17:20.496Z,3.80
2022-12-08T18:19:48.285Z,3.80
2022-12-08T18:22:16.031Z,3.80
2022-12-08T18:24:43.807Z,3.80
2022-12-08T18:27:12.890Z,3.70
2022-12-08T18:29:41.157Z,3.70
2022-12-08T18:32:09.339Z,3.60
2022-12-08T18:34:37.076Z,3.60
2022-12-08T18:37:04.886Z,3.60
2022-12-08T18:39:33.088Z,3.60
2022-12-08T18:42:02.435Z,3.60
2022-12-08T18:44:31.454Z,3.70
2022-12-08T18:46:59.151Z,3.70
2022-12-08T18:49:27.389Z,3.70
2022-12-08T18:51:55.353Z,3.80
2022-12-08T18:54:37.096Z,3.80
2022-12-08T18:57:10.965Z,3.80
2022-12-08T18:59:40.090Z,3.80
2022-12-08T19:02:07.929Z,3.90
2022-12-08T19:04:38.845Z,4.00
2022-12-08T19:07:06.999Z,4.00
2022-12-08T19:09:34.682Z,4.00
2022-12-08T19:12:02.413Z,4.00
2022-12-08T19:14:30.352Z,4.00
2022-12-08T19:16:59.421Z,4.00
2022-12-08T19:19:27.498Z,4.00
2022-12-08T19:21:55.223Z,4.00
2022-12-08T19:24:22.951Z,4.10
2022-12-08T19:26:50.668Z,4.10
2022-12-08T19:29:18.417Z,4.20
2022-12-08T19:31:46.256Z,4.10
2022-12-08T19:34:15.429Z,4.10
2022-12-08T19:36:43.281Z,4.00
2022-12-08T19:39:31.426Z,4.00
2022-12-08T19:42:16.523Z,3.90
2022-12-08T19:44:56.159Z,4.00
2022-12-08T19:47:24.661Z,3.90
2022-12-08T19:49:54.673Z,3.90
2022-12-08T19:52:22.798Z,3.90
2022-12-08T19:54:50.480Z,3.90
2022-12-08T19:57:18.152Z,3.90
2022-12-08T19:59:45.983Z,4.00
2022-12-08T20:02:13.648Z,4.00
2022-12-08T20:04:41.398Z,4.10
2022-12-08T20:07:13.199Z,4.10
2022-12-08T20:09:40.895Z,4.10
2022-12-08T20:12:09.036Z,4.00
2022-12-08T20:14:39.268Z,4.00
2022-12-08T20:17:10.402Z,4.00
2022-12-08T20:19:38.073Z,4.00
2022-12-08T20:22:05.767Z,4.00
2022-12-08T20:24:35.785Z,4.00
2022-12-08T20:27:03.483Z,3.90
2022-12-08T20:29:31.185Z,3.90
2022-12-08T20:31:59.061Z,4.00
2022-12-08T20:34:27.209Z,3.90
2022-12-08T20:36:55.118Z,4.00
2022-12-08T20:39:22.805Z,4.00
2022-12-08T20:41:54.479Z,4.00
2022-12-08T20:44:22.279Z,3.90
2022-12-08T20:46:50.080Z,3.90
2022-12-08T20:49:17.861Z,4.00
2022-12-08T20:51:46.339Z,3.90
2022-12-08T20:54:14.162Z,3.90
2022-12-08T20:56:48.043Z,4.00
2022-12-08T20:59:18.151Z,4.00
2022-12-08T21:01:46.345Z,4.00
2022-12-08T21:04:14.371Z,3.90
2022-12-08T21:06:42.492Z,3.90
2022-12-08T21:09:10.452Z,3.80
2022-12-08T21:11:38.286Z,3.70
2022-12-08T21:14:06.237Z,3.80
2022-12-08T21:16:35.570Z,3.80
2022-12-08T21:19:03.676Z,3.80
2022-12-08T21:21:31.425Z,3.90
2022-12-08T21:23:59.412Z,4.00
2022-12-08T21:26:27.408Z,4.00
2022-12-08T21:28:55.631Z,4.10
2022-12-08T21:31:25.124Z,4.10
2022-12-08T21:33:55.182Z,4.10
2022-12-08T21:36:23.313Z,4.10
2022-12-08T21:38:51.640Z,4.20
2022-12-08T21:41:41.654Z,4.20
2022-12-08T21:44:11.283Z,4.20
2022-12-08T21:46:39.213Z,4.20
2022-12-08T21:49:08.652Z,4.20
2022-12-08T21:51:41.446Z,4.20
2022-12-08T21:54:13.532Z,4.20
2022-12-08T21:56:46.603Z,4.20
2022-12-08T21:59:15.339Z,4.20
2022-12-08T22:01:43.792Z,4.20
2022-12-08T22:04:13.649Z,4.20
2022-12-08T22:06:41.505Z,4.20
2022-12-08T22:09:11.805Z,4.20
2022-12-08T22:11:39.866Z,4.50
2022-12-08T22:14:13.836Z,4.80
2022-12-08T22:16:42.887Z,5.10
2022-12-08T22:19:10.812Z,5.30
2022-12-08T22:21:40.305Z,5.40
2022-12-08T22:24:08.624Z,5.60
2022-12-08T22:26:36.462Z,5.70
2022-12-08T22:29:04.499Z,5.80
2022-12-08T22:31:32.405Z,5.90
2022-12-08T22:34:00.516Z,6.00
2022-12-08T22:36:28.915Z,6.00
2022-12-08T22:38:58.346Z,5.90
2022-12-08T22:41:26.369Z,5.70
2022-12-08T22:43:54.253Z,5.50
2022-12-08T22:46:23.383Z,5.30
2022-12-08T22:48:51.835Z,5.40
2022-12-08T22:51:19.802Z,5.50
2022-12-08T22:53:47.921Z,5.60
2022-12-08T22:56:17.333Z,5.80
2022-12-08T22:58:45.455Z,5.80
2022-12-08T23:01:22.181Z,5.80
2022-12-08T23:03:50.154Z,5.90
2022-12-08T23:06:18.486Z,5.90
2022-12-08T23:08:46.524Z,6.00
2022-12-08T23:11:14.535Z,6.00
2022-12-08T23:13:43.607Z,6.00
2022-12-08T23:16:11.802Z,6.00
2022-12-08T23:18:41.250Z,6.00
2022-12-08T23:21:10.630Z,6.10
2022-12-08T23:23:38.608Z,6.20
2022-12-08T23:26:12.999Z,6.20
2022-12-08T23:28:40.721Z,6.20
2022-12-08T23:31:09.998Z,6.00
2022-12-08T23:33:39.557Z,5.90
2022-12-08T23:36:07.465Z,5.90
2022-12-08T23:38:35.325Z,5.90
2022-12-08T23:41:03.450Z,6.00
2022-12-08T23:43:31.408Z,6.00
2022-12-08T23:45:59.154Z,6.00
2022-12-08T23:48:28.821Z,6.10
2022-12-08T23:50:57.596Z,6.00
2022-12-08T23:53:26.868Z,6.00
2022-12-08T23:55:58.875Z,6.10
2022-12-08T23:58:26.582Z,6.10
